Imperial Eagle — V7TK5 — position and weather

sailwx.info

Track history (hours):
 
Tides and Currents Weather Stations Pressure Air Temp Water Temp Dewpoint Dewpoint Depression Visibility Wind Speed Wind Dir Waves Ship Positions

Imperial Eagle

Last reported at 2016-Jun-13 10:24 UTC. Time now 2016-Jun-30 01:31 UTC.
Position N 27°39' W 013°45'.
Warning: this ship's position is 16 days out of date.

Length 190 m; draft 12.5 m.

Type: Cargo ship. MMSI: 256759020.

Date/timePositionNaut miles runAvg speedWind from/ knotsBaromVisibWave heightAir tempDewpointWater temp
2016-Jun-13 10:24N 27°39' W 013°45'1314.0
2016-Jun-13 09:30N 27°50' W 013°37'1413.9
2016-Jun-13 08:30N 28°01' W 013°28'1914.5
2016-Jun-13 07:10N 28°18' W 013°16'913.9
2016-Jun-13 06:31N 28°25' W 013°11'1313.8
2016-Jun-13 05:33N 28°36' W 013°02'1413.9
2016-Jun-13 04:33N 28°48' W 012°53'2813.8
2016-Jun-13 02:31N 29°11' W 012°35'2813.7
2016-Jun-13 00:28N 29°34' W 012°17'40913.6
2016-Jun-11 18:25N 34°53' W 007°15'1113.1
2016-Jun-11 17:33N 35°01' W 007°05'2813.3
2016-Jun-11 15:28N 35°21' W 006°41'7011.9
2016-Jun-11 09:33N 35°59' W 005°29'1010.0
2016-Jun-11 08:33N 36°07' W 005°22'0 0.1
2016-Jun-11 07:33N 36°07' W 005°22'0 0.1
2016-Jun-11 06:30N 36°07' W 005°22'0 0.0
2016-Jun-11 05:33N 36°07' W 005°22'0 0.1
2016-Jun-11 04:33N 36°07' W 005°22'0 0.1
2016-Jun-11 03:33N 36°07' W 005°22'0 0.1
2016-Jun-11 02:33N 36°07' W 005°22'0 0.0
2016-Jun-11 01:33N 36°07' W 005°22'0 0.2
2016-Jun-11 00:27N 36°07' W 005°22'0 0.2
2016-Jun-10 23:33N 36°07' W 005°22'0 0.0
2016-Jun-10 22:33N 36°07' W 005°22'3 3.1
2016-Jun-10 21:34N 36°06' W 005°18'5 5.5
2016-Jun-10 20:34N 36°06' W 005°12'18511.6
2016-Jun-10 04:33N 36°33' W 001°25'1212.2
2016-Jun-10 03:33N 36°35' W 001°09'1212.4
2016-Jun-10 02:33N 36°36' W 000°54'1313.1
2016-Jun-10 01:33N 36°38' W 000°38'1313.4
2016-Jun-10 00:34N 36°40' W 000°22'1313.5
2016-Jun-09 23:33N 36°42' W 000°05'1313.3
2016-Jun-09 22:33N 36°44' E 000°11'1413.5
2016-Jun-09 21:33N 36°45' E 000°28'1413.7
2016-Jun-09 20:34N 36°47' E 000°45'1413.7
2016-Jun-09 19:33N 36°49' E 001°02'1313.5
2016-Jun-09 18:34N 36°51' E 001°19'1313.2
2016-Jun-09 17:34N 36°53' E 001°35'1413.5
2016-Jun-09 16:33N 36°54' E 001°52'1313.0
2016-Jun-09 15:33N 36°56' E 002°08'1212.5
2016-Jun-09 14:33N 36°59' E 002°23'1312.7
2016-Jun-09 13:33N 37°01' E 002°39'1312.7
2016-Jun-09 12:33N 37°03' E 002°55'1312.9
2016-Jun-09 11:33N 37°06' E 003°11'1312.5
2016-Jun-09 10:33N 37°06' E 003°26'1312.7
2016-Jun-09 09:33N 37°06' E 003°42'1313.0
2016-Jun-09 08:33N 37°08' E 003°58'1313.1
2016-Jun-09 07:33N 37°10' E 004°15'1313.1
2016-Jun-09 06:33N 37°12' E 004°31'1312.6
2016-Jun-09 05:33N 37°14' E 004°46'1312.7
2016-Jun-09 04:34N 37°16' E 005°02'1513.2
2016-Jun-09 03:28N 37°18' E 005°20'1213.1
2016-Jun-09 02:33N 37°19' E 005°35'1313.2
2016-Jun-09 01:33N 37°21' E 005°52'1313.1
2016-Jun-09 00:33N 37°23' E 006°08'1212.5
2016-Jun-08 23:33N 37°25' E 006°23'3112.5
2016-Jun-08 21:03N 37°29' E 007°03'912.6
2016-Jun-08 20:20N 37°30' E 007°14'2613.3
2016-Jun-08 18:24N 37°34' E 007°46'1313.4
2016-Jun-08 17:23N 37°35' E 008°03'7912.9
2016-Jun-08 11:18N 37°39' E 009°42'1012.8
2016-Jun-08 10:30N 37°40' E 009°55'1212.5
2016-Jun-08 09:34N 37°40' E 010°10'1211.9
2016-Jun-08 08:34N 37°37' E 010°25'7013.3
2016-Jun-08 03:18N 37°17' E 011°49'1412.8
2016-Jun-08 02:14N 37°13' E 012°05'913.0
2016-Jun-08 01:33N 37°10' E 012°15'1612.6
2016-Jun-08 00:19N 37°05' E 012°34'1013.2
2016-Jun-07 23:33N 37°03' E 012°46'1313.5
2016-Jun-07 22:34N 36°58' E 013°02'1313.0
2016-Jun-07 21:33N 36°55' E 013°18'1313.0
2016-Jun-07 20:33N 36°51' E 013°33'1212.2
2016-Jun-07 19:34N 36°47' E 013°48'1313.0
2016-Jun-07 18:34N 36°44' E 014°03'1312.9
2016-Jun-07 17:34N 36°39' E 014°18'1312.6
2016-Jun-07 16:33N 36°36' E 014°34'1312.9
2016-Jun-07 15:33N 36°35' E 014°50'1313.0
2016-Jun-07 14:33N 36°34' E 015°06'1313.3
2016-Jun-07 13:32N 36°34' E 015°23'1413.8
2016-Jun-07 12:33N 36°34' E 015°40'36813.1
2016-Jun-06 08:28N 36°29' E 023°17'1913.7
2016-Jun-06 07:04N 36°44' E 023°32'813.9
2016-Jun-06 06:31N 36°50' E 023°38'1313.7
2016-Jun-06 05:33N 37°00' E 023°48'1414.2
2016-Jun-06 04:33N 37°12' E 023°59'1514.6
2016-Jun-06 03:32N 37°23' E 024°11'2114.4
2016-Jun-06 02:06N 37°39' E 024°28'814.7
2016-Jun-06 01:33N 37°47' E 024°31'14414.2
2016-Jun-05 15:26N 39°55' E 025°56'  
Track history (hours):
 
Tides and Currents Weather Stations Pressure Air Temp Water Temp Dewpoint Dewpoint Depression Visibility Wind Speed Wind Dir Waves Ship Positions

Imperial Eagle

Last reported at 2016-Jun-13 10:24 UTC. Time now 2016-Jun-30 01:31 UTC.
Position N 27°39' W 013°45'.
Warning: this ship's position is 16 days out of date.

Length 190 m; draft 12.5 m.

Type: Cargo ship. MMSI: 256759020.

Date/timePositionNaut miles runAvg speedWind from/ knotsBaromVisibWave heightAir tempDewpointWater temp
2016-Jun-13 10:24N 27°39' W 013°45'1314.0
2016-Jun-13 09:30N 27°50' W 013°37'1413.9
2016-Jun-13 08:30N 28°01' W 013°28'1914.5
2016-Jun-13 07:10N 28°18' W 013°16'913.9
2016-Jun-13 06:31N 28°25' W 013°11'1313.8
2016-Jun-13 05:33N 28°36' W 013°02'1413.9
2016-Jun-13 04:33N 28°48' W 012°53'2813.8
2016-Jun-13 02:31N 29°11' W 012°35'2813.7
2016-Jun-13 00:28N 29°34' W 012°17'40913.6
2016-Jun-11 18:25N 34°53' W 007°15'1113.1
2016-Jun-11 17:33N 35°01' W 007°05'2813.3
2016-Jun-11 15:28N 35°21' W 006°41'7011.9
2016-Jun-11 09:33N 35°59' W 005°29'1010.0
2016-Jun-11 08:33N 36°07' W 005°22'0 0.1
2016-Jun-11 07:33N 36°07' W 005°22'0 0.1
2016-Jun-11 06:30N 36°07' W 005°22'0 0.0
2016-Jun-11 05:33N 36°07' W 005°22'0 0.1
2016-Jun-11 04:33N 36°07' W 005°22'0 0.1
2016-Jun-11 03:33N 36°07' W 005°22'0 0.1
2016-Jun-11 02:33N 36°07' W 005°22'0 0.0
2016-Jun-11 01:33N 36°07' W 005°22'0 0.2
2016-Jun-11 00:27N 36°07' W 005°22'0 0.2
2016-Jun-10 23:33N 36°07' W 005°22'0 0.0
2016-Jun-10 22:33N 36°07' W 005°22'3 3.1
2016-Jun-10 21:34N 36°06' W 005°18'5 5.5
2016-Jun-10 20:34N 36°06' W 005°12'18511.6
2016-Jun-10 04:33N 36°33' W 001°25'1212.2
2016-Jun-10 03:33N 36°35' W 001°09'1212.4
2016-Jun-10 02:33N 36°36' W 000°54'1313.1
2016-Jun-10 01:33N 36°38' W 000°38'1313.4
2016-Jun-10 00:34N 36°40' W 000°22'1313.5
2016-Jun-09 23:33N 36°42' W 000°05'1313.3
2016-Jun-09 22:33N 36°44' E 000°11'1413.5
2016-Jun-09 21:33N 36°45' E 000°28'1413.7
2016-Jun-09 20:34N 36°47' E 000°45'1413.7
2016-Jun-09 19:33N 36°49' E 001°02'1313.5
2016-Jun-09 18:34N 36°51' E 001°19'1313.2
2016-Jun-09 17:34N 36°53' E 001°35'1413.5
2016-Jun-09 16:33N 36°54' E 001°52'1313.0
2016-Jun-09 15:33N 36°56' E 002°08'1212.5
2016-Jun-09 14:33N 36°59' E 002°23'1312.7
2016-Jun-09 13:33N 37°01' E 002°39'1312.7
2016-Jun-09 12:33N 37°03' E 002°55'1312.9
2016-Jun-09 11:33N 37°06' E 003°11'1312.5
2016-Jun-09 10:33N 37°06' E 003°26'1312.7
2016-Jun-09 09:33N 37°06' E 003°42'1313.0
2016-Jun-09 08:33N 37°08' E 003°58'1313.1
2016-Jun-09 07:33N 37°10' E 004°15'1313.1
2016-Jun-09 06:33N 37°12' E 004°31'1312.6
2016-Jun-09 05:33N 37°14' E 004°46'1312.7
2016-Jun-09 04:34N 37°16' E 005°02'1513.2
2016-Jun-09 03:28N 37°18' E 005°20'1213.1
2016-Jun-09 02:33N 37°19' E 005°35'1313.2
2016-Jun-09 01:33N 37°21' E 005°52'1313.1
2016-Jun-09 00:33N 37°23' E 006°08'1212.5
2016-Jun-08 23:33N 37°25' E 006°23'3112.5
2016-Jun-08 21:03N 37°29' E 007°03'912.6
2016-Jun-08 20:20N 37°30' E 007°14'2613.3
2016-Jun-08 18:24N 37°34' E 007°46'1313.4
2016-Jun-08 17:23N 37°35' E 008°03'7912.9
2016-Jun-08 11:18N 37°39' E 009°42'1012.8
2016-Jun-08 10:30N 37°40' E 009°55'1212.5
2016-Jun-08 09:34N 37°40' E 010°10'1211.9
2016-Jun-08 08:34N 37°37' E 010°25'7013.3
2016-Jun-08 03:18N 37°17' E 011°49'1412.8
2016-Jun-08 02:14N 37°13' E 012°05'913.0
2016-Jun-08 01:33N 37°10' E 012°15'1612.6
2016-Jun-08 00:19N 37°05' E 012°34'1013.2
2016-Jun-07 23:33N 37°03' E 012°46'1313.5
2016-Jun-07 22:34N 36°58' E 013°02'1313.0
2016-Jun-07 21:33N 36°55' E 013°18'1313.0
2016-Jun-07 20:33N 36°51' E 013°33'1212.2
2016-Jun-07 19:34N 36°47' E 013°48'1313.0
2016-Jun-07 18:34N 36°44' E 014°03'1312.9
2016-Jun-07 17:34N 36°39' E 014°18'1312.6
2016-Jun-07 16:33N 36°36' E 014°34'1312.9
2016-Jun-07 15:33N 36°35' E 014°50'1313.0
2016-Jun-07 14:33N 36°34' E 015°06'1313.3
2016-Jun-07 13:32N 36°34' E 015°23'1413.8
2016-Jun-07 12:33N 36°34' E 015°40'36813.1
2016-Jun-06 08:28N 36°29' E 023°17'1913.7
2016-Jun-06 07:04N 36°44' E 023°32'813.9
2016-Jun-06 06:31N 36°50' E 023°38'1313.7
2016-Jun-06 05:33N 37°00' E 023°48'1414.2
2016-Jun-06 04:33N 37°12' E 023°59'1514.6
2016-Jun-06 03:32N 37°23' E 024°11'2114.4
2016-Jun-06 02:06N 37°39' E 024°28'814.7
2016-Jun-06 01:33N 37°47' E 024°31'14414.2
2016-Jun-05 15:26N 39°55' E 025°56'  

Dump ship's entire track history